createdAt,value
2022-10-06T00:02:14.736Z,2.17
2022-10-06T00:04:41.537Z,2.50
2022-10-06T00:07:08.355Z,2.30
2022-10-06T00:09:35.118Z,2.40
2022-10-06T00:12:03.699Z,2.23
2022-10-06T00:14:30.473Z,2.37
2022-10-06T00:16:57.261Z,2.60
2022-10-06T00:19:24.577Z,2.10
2022-10-06T00:21:51.472Z,3.00
2022-10-06T00:24:18.207Z,2.80
2022-10-06T00:26:45.171Z,2.80
2022-10-06T00:29:13.793Z,2.90
2022-10-06T00:31:40.825Z,2.40
2022-10-06T00:34:07.570Z,2.40
2022-10-06T00:36:34.343Z,2.97
2022-10-06T00:39:01.083Z,2.53
2022-10-06T00:41:27.953Z,2.57
2022-10-06T00:43:55.906Z,2.90
2022-10-06T00:46:33.989Z,2.47
2022-10-06T00:49:06.820Z,2.83
2022-10-06T00:51:35.718Z,2.83
2022-10-06T00:54:03.389Z,2.90
2022-10-06T00:56:31.251Z,3.13
2022-10-06T00:58:58.026Z,2.57
2022-10-06T01:01:28.044Z,2.50
2022-10-06T01:03:59.091Z,2.53
2022-10-06T01:06:25.919Z,2.67
2022-10-06T01:08:53.139Z,2.50
2022-10-06T01:11:19.951Z,2.80
2022-10-06T01:13:46.877Z,2.67
2022-10-06T01:16:18.277Z,2.63
2022-10-06T01:18:47.515Z,2.20
2022-10-06T01:21:20.214Z,2.57
2022-10-06T01:23:48.635Z,2.33
2022-10-06T01:26:17.987Z,2.30
2022-10-06T01:28:45.434Z,2.80
2022-10-06T01:31:12.574Z,2.80
2022-10-06T01:33:39.419Z,2.93
2022-10-06T01:36:06.760Z,2.90
2022-10-06T01:38:33.637Z,2.80
2022-10-06T01:41:01.927Z,2.63
2022-10-06T01:43:28.706Z,2.30
2022-10-06T01:45:56.348Z,2.70
2022-10-06T01:48:23.538Z,2.83
2022-10-06T01:50:50.808Z,2.50
2022-10-06T01:53:17.950Z,2.27
2022-10-06T01:55:44.795Z,2.30
2022-10-06T01:58:13.279Z,3.23
2022-10-06T02:00:40.645Z,2.77
2022-10-06T02:03:07.514Z,2.33
2022-10-06T02:05:34.644Z,2.73
2022-10-06T02:08:02.354Z,2.80
2022-10-06T02:10:29.289Z,2.90
2022-10-06T02:12:56.037Z,3.37
2022-10-06T02:15:24.522Z,1.93
2022-10-06T02:17:51.330Z,2.03
2022-10-06T02:20:18.134Z,1.93
2022-10-06T02:22:45.046Z,1.60
2022-10-06T02:25:12.113Z,2.50
2022-10-06T02:27:39.205Z,2.20
2022-10-06T02:30:07.426Z,2.23
2022-10-06T02:32:36.723Z,1.73
2022-10-06T02:35:04.288Z,1.53
2022-10-06T02:37:31.264Z,1.20
2022-10-06T02:39:58.038Z,0.90
2022-10-06T02:42:24.810Z,0.80
2022-10-06T02:44:51.612Z,0.90
2022-10-06T02:47:18.615Z,1.00
2022-10-06T02:49:46.931Z,0.87
2022-10-06T02:52:13.730Z,0.90
2022-10-06T02:54:40.467Z,0.60
2022-10-06T02:57:07.338Z,0.40
2022-10-06T02:59:34.072Z,0.60
2022-10-06T03:02:00.895Z,0.50
2022-10-06T03:04:27.736Z,0.63
2022-10-06T03:06:55.860Z,0.43
2022-10-06T03:09:22.545Z,0.60
2022-10-06T03:11:49.323Z,0.60
2022-10-06T03:14:21.381Z,0.70
2022-10-06T03:16:48.794Z,0.73
2022-10-06T03:19:15.572Z,0.53
2022-10-06T03:21:43.667Z,0.53
2022-10-06T03:24:12.061Z,0.60
2022-10-06T03:26:40.777Z,0.57
2022-10-06T03:29:11.367Z,0.50
2022-10-06T03:31:39.000Z,0.53
2022-10-06T03:34:06.080Z,1.00
2022-10-06T03:36:33.821Z,0.50
2022-10-06T03:39:00.771Z,0.97
2022-10-06T03:41:30.957Z,0.80
2022-10-06T03:43:59.035Z,0.53
2022-10-06T03:46:27.781Z,0.53
2022-10-06T03:48:55.399Z,0.50
2022-10-06T03:51:23.715Z,0.70
2022-10-06T03:53:51.825Z,0.50
2022-10-06T03:56:21.072Z,0.70
2022-10-06T03:58:51.642Z,0.67
2022-10-06T04:01:25.704Z,0.73
2022-10-06T04:03:54.028Z,0.80
2022-10-06T04:06:21.253Z,0.60
2022-10-06T04:08:49.277Z,0.63
2022-10-06T04:11:17.922Z,0.50
2022-10-06T04:13:45.235Z,0.50
2022-10-06T04:16:15.648Z,0.40
2022-10-06T04:18:43.477Z,0.60
2022-10-06T04:21:10.862Z,0.77
2022-10-06T04:23:37.808Z,0.60
2022-10-06T04:26:06.725Z,0.40
2022-10-06T04:28:34.035Z,0.50
2022-10-06T04:31:02.044Z,0.50
2022-10-06T04:33:30.214Z,0.97
2022-10-06T04:35:57.539Z,0.50
2022-10-06T04:38:24.284Z,0.50
2022-10-06T04:40:51.064Z,0.60
2022-10-06T04:43:17.855Z,0.63
2022-10-06T04:45:44.650Z,0.67
2022-10-06T04:48:11.380Z,1.07
2022-10-06T04:50:39.451Z,0.93
2022-10-06T04:53:06.208Z,0.60
2022-10-06T04:55:33.074Z,0.70
2022-10-06T04:57:59.848Z,1.10
2022-10-06T05:00:26.553Z,0.97
2022-10-06T05:02:53.801Z,0.77
2022-10-06T05:05:20.614Z,1.00
2022-10-06T05:07:48.770Z,0.50
2022-10-06T05:10:15.747Z,0.90
2022-10-06T05:12:42.620Z,0.87
2022-10-06T05:15:10.329Z,0.53
2022-10-06T05:17:37.108Z,0.77
2022-10-06T05:20:04.567Z,0.77
2022-10-06T05:22:31.800Z,0.83
2022-10-06T05:24:59.903Z,0.73
2022-10-06T05:27:26.663Z,1.00
2022-10-06T05:29:53.442Z,1.00
2022-10-06T05:32:20.197Z,0.70
2022-10-06T05:34:46.992Z,1.00
2022-10-06T05:37:13.768Z,1.13
2022-10-06T05:39:40.474Z,0.80
2022-10-06T05:42:08.560Z,1.17
2022-10-06T05:44:37.852Z,1.10
2022-10-06T05:47:04.651Z,1.07
2022-10-06T05:49:31.474Z,0.93
2022-10-06T05:51:58.270Z,1.07
2022-10-06T05:54:25.010Z,1.07
2022-10-06T05:56:51.777Z,1.17
2022-10-06T05:59:20.036Z,1.00
2022-10-06T06:01:46.815Z,0.90
2022-10-06T06:04:13.709Z,1.20
2022-10-06T06:06:42.878Z,0.83
2022-10-06T06:09:11.991Z,0.77
2022-10-06T06:11:40.576Z,1.00
2022-10-06T06:14:09.272Z,0.80
2022-10-06T06:16:38.672Z,0.73
2022-10-06T06:19:08.360Z,0.73
2022-10-06T06:21:35.909Z,1.20
2022-10-06T06:24:03.739Z,0.87
2022-10-06T06:26:32.469Z,1.17
2022-10-06T06:29:00.982Z,1.63
2022-10-06T06:31:29.717Z,0.80
2022-10-06T06:33:59.280Z,1.10
2022-10-06T06:36:27.932Z,0.97
2022-10-06T06:38:56.626Z,1.07
2022-10-06T06:41:25.770Z,1.00
2022-10-06T06:43:53.276Z,1.20
2022-10-06T06:46:23.368Z,1.70
2022-10-06T06:48:51.098Z,1.10
2022-10-06T06:51:19.300Z,1.10
2022-10-06T06:53:46.009Z,0.83
2022-10-06T06:56:12.809Z,1.33
2022-10-06T06:58:39.792Z,1.10
2022-10-06T07:01:08.353Z,1.17
2022-10-06T07:06:27.746Z,1.30
2022-10-06T07:08:55.950Z,1.30
2022-10-06T07:11:24.875Z,1.20
2022-10-06T07:13:53.536Z,1.00
2022-10-06T07:16:21.610Z,1.70
2022-10-06T07:18:48.423Z,1.00
2022-10-06T07:21:15.254Z,1.40
2022-10-06T07:23:43.491Z,1.50
2022-10-06T07:26:10.355Z,1.23
2022-10-06T07:28:37.235Z,1.43
2022-10-06T07:31:04.090Z,1.40
2022-10-06T07:33:31.148Z,1.60
2022-10-06T07:35:58.020Z,2.23
2022-10-06T07:38:24.748Z,2.10
2022-10-06T07:41:17.978Z,2.50
2022-10-06T07:43:42.585Z,1.70
2022-10-06T07:46:10.264Z,2.43
2022-10-06T07:48:37.175Z,2.17
2022-10-06T07:51:12.131Z,1.80
2022-10-06T07:53:38.887Z,1.60
2022-10-06T07:56:08.445Z,2.60
2022-10-06T07:58:35.383Z,1.70
2022-10-06T08:01:06.132Z,2.03
2022-10-06T08:03:32.939Z,2.10
2022-10-06T08:06:01.878Z,1.60
2022-10-06T08:08:31.205Z,1.63
2022-10-06T08:11:01.530Z,2.43
2022-10-06T08:13:30.147Z,1.40
2022-10-06T08:16:04.241Z,1.97
2022-10-06T08:18:47.296Z,1.97
2022-10-06T08:21:16.254Z,2.00
2022-10-06T08:23:44.228Z,2.00
2022-10-06T08:26:12.428Z,2.27
2022-10-06T08:28:44.442Z,1.97
2022-10-06T08:31:13.132Z,2.40
2022-10-06T08:33:40.497Z,1.80
2022-10-06T08:36:10.918Z,2.10
2022-10-06T08:38:38.309Z,1.80
2022-10-06T08:41:17.379Z,1.30
2022-10-06T08:43:52.203Z,1.73
2022-10-06T08:46:24.609Z,1.90
2022-10-06T08:48:51.873Z,1.37
2022-10-06T08:51:36.113Z,1.43
2022-10-06T08:54:11.709Z,1.63
2022-10-06T08:56:47.496Z,1.70
2022-10-06T08:59:16.260Z,1.60
2022-10-06T09:01:46.410Z,2.00
2022-10-06T09:04:20.332Z,1.93
2022-10-06T09:06:53.954Z,1.10
2022-10-06T09:09:36.739Z,1.63
2022-10-06T09:12:11.435Z,1.60
2022-10-06T09:14:44.137Z,1.47
2022-10-06T09:17:16.574Z,1.43
2022-10-06T09:19:48.263Z,1.30
2022-10-06T09:22:20.604Z,1.37
2022-10-06T09:24:48.471Z,1.30
2022-10-06T09:27:19.627Z,1.50
2022-10-06T09:29:48.174Z,2.10
2022-10-06T09:32:15.100Z,1.20
2022-10-06T09:34:48.201Z,1.77
2022-10-06T09:37:15.024Z,2.20
2022-10-06T09:39:44.029Z,1.77
2022-10-06T09:42:17.981Z,2.10
2022-10-06T09:44:56.999Z,2.23
2022-10-06T09:47:41.561Z,1.60
2022-10-06T09:50:26.908Z,1.80
2022-10-06T09:53:21.392Z,2.20
2022-10-06T09:55:51.003Z,1.70
2022-10-06T09:58:29.150Z,1.77
2022-10-06T10:00:59.918Z,1.93
2022-10-06T10:03:41.993Z,1.97
2022-10-06T10:06:22.420Z,1.80
2022-10-06T10:08:49.370Z,1.50
2022-10-06T10:11:22.754Z,1.97
2022-10-06T10:13:52.764Z,1.93
2022-10-06T10:16:25.396Z,1.77
2022-10-06T10:18:52.387Z,1.73
2022-10-06T10:21:24.647Z,1.30
2022-10-06T10:23:56.243Z,1.73
2022-10-06T10:26:37.383Z,2.33
2022-10-06T10:29:32.995Z,1.80
2022-10-06T10:32:10.746Z,1.60
2022-10-06T10:35:02.929Z,1.90
2022-10-06T10:37:38.109Z,1.60
2022-10-06T10:40:19.821Z,1.80
2022-10-06T10:42:52.537Z,1.17
2022-10-06T10:45:24.688Z,1.20
2022-10-06T10:47:54.226Z,1.60
2022-10-06T10:50:25.649Z,1.30
2022-10-06T10:52:57.479Z,1.70
2022-10-06T10:55:29.597Z,1.87
2022-10-06T10:57:59.389Z,1.83
2022-10-06T11:00:28.905Z,1.90
2022-10-06T11:02:58.899Z,1.70
2022-10-06T11:05:45.893Z,1.60
2022-10-06T11:08:19.215Z,1.70
2022-10-06T11:13:42.865Z,1.83
2022-10-06T11:16:24.525Z,1.20
2022-10-06T11:19:05.450Z,1.70
2022-10-06T11:21:40.060Z,1.40
2022-10-06T11:24:14.411Z,1.70
2022-10-06T11:26:55.363Z,1.67
2022-10-06T11:29:34.136Z,1.77
2022-10-06T11:32:11.213Z,1.40
2022-10-06T11:34:41.694Z,2.20
2022-10-06T11:37:21.052Z,1.43
2022-10-06T11:39:54.738Z,1.30
2022-10-06T11:45:02.172Z,1.53
2022-10-06T11:47:35.459Z,2.17
2022-10-06T11:50:32.280Z,2.30
2022-10-06T11:52:59.562Z,1.70
2022-10-06T11:55:26.961Z,1.40
2022-10-06T11:58:37.519Z,1.23
2022-10-06T12:00:58.764Z,1.30
2022-10-06T12:04:03.334Z,2.20
2022-10-06T12:06:54.934Z,1.30
2022-10-06T12:09:38.126Z,1.10
2022-10-06T12:12:40.755Z,1.30
2022-10-06T12:18:22.077Z,1.27
2022-10-06T12:21:02.505Z,1.40
2022-10-06T12:23:43.358Z,1.63
2022-10-06T12:26:21.276Z,1.50
2022-10-06T12:28:52.659Z,1.50
2022-10-06T12:32:07.939Z,1.37
2022-10-06T12:35:03.151Z,1.20
2022-10-06T12:37:41.249Z,1.50
2022-10-06T12:40:47.630Z,2.00
2022-10-06T12:43:56.386Z,1.83
2022-10-06T12:46:36.304Z,1.40
2022-10-06T12:49:31.665Z,1.30
2022-10-06T12:52:07.742Z,1.73
2022-10-06T12:54:40.646Z,2.63
2022-10-06T12:57:18.867Z,1.20
2022-10-06T12:59:46.673Z,1.55
2022-10-06T13:02:18.699Z,1.30
2022-10-06T13:04:48.326Z,1.50
2022-10-06T13:07:18.441Z,1.67
2022-10-06T13:09:47.090Z,1.67
2022-10-06T13:12:23.953Z,1.90
2022-10-06T13:15:09.434Z,1.40
2022-10-06T13:17:40.139Z,1.40
2022-10-06T13:20:07.686Z,1.40
2022-10-06T13:22:35.205Z,1.80
2022-10-06T13:25:02.163Z,1.30
2022-10-06T13:27:30.386Z,1.57
2022-10-06T13:30:12.319Z,1.53
2022-10-06T13:32:39.334Z,1.77
2022-10-06T13:35:06.508Z,1.90
2022-10-06T13:37:33.438Z,1.93
2022-10-06T13:40:00.646Z,2.10
2022-10-06T13:42:29.114Z,1.70
2022-10-06T13:45:00.557Z,1.93
2022-10-06T13:47:29.048Z,1.60
2022-10-06T13:50:00.757Z,1.97
2022-10-06T13:52:34.759Z,1.47
2022-10-06T13:55:02.914Z,1.40
2022-10-06T13:57:34.742Z,1.30
2022-10-06T14:00:18.123Z,1.40
2022-10-06T14:02:46.818Z,2.20
2022-10-06T14:05:28.325Z,1.63
2022-10-06T14:07:58.944Z,1.70
2022-10-06T14:10:28.843Z,1.50
2022-10-06T14:12:55.958Z,1.60
2022-10-06T14:15:26.676Z,1.30
2022-10-06T14:17:56.229Z,1.43
2022-10-06T14:20:41.266Z,2.07
2022-10-06T14:23:32.761Z,2.23
2022-10-06T14:25:59.942Z,1.53
2022-10-06T14:28:26.763Z,1.10
2022-10-06T14:30:55.005Z,1.43
2022-10-06T14:33:21.789Z,1.80
2022-10-06T14:35:48.649Z,1.40
2022-10-06T14:38:15.449Z,1.40
2022-10-06T14:40:42.601Z,1.67
2022-10-06T14:43:09.697Z,1.43
2022-10-06T14:45:40.791Z,1.13
2022-10-06T14:48:09.186Z,1.23
2022-10-06T14:50:35.986Z,1.47
2022-10-06T14:53:03.416Z,1.40
2022-10-06T14:55:30.314Z,2.23
2022-10-06T14:57:57.832Z,1.73
2022-10-06T15:00:25.196Z,1.33
2022-10-06T15:02:52.061Z,1.03
2022-10-06T15:05:20.233Z,1.60
2022-10-06T15:07:46.985Z,1.33
2022-10-06T15:10:13.730Z,1.53
2022-10-06T15:12:40.523Z,1.40
2022-10-06T15:15:07.926Z,1.23
2022-10-06T15:17:34.685Z,1.20
2022-10-06T15:20:01.445Z,1.27
2022-10-06T15:22:29.674Z,1.10
2022-10-06T15:24:56.939Z,2.20
2022-10-06T15:27:25.084Z,1.57
2022-10-06T15:29:52.089Z,1.40
2022-10-06T15:32:19.183Z,2.10
2022-10-06T15:34:45.906Z,1.63
2022-10-06T15:37:12.639Z,1.47
2022-10-06T15:39:40.702Z,1.67
2022-10-06T15:42:07.979Z,1.20
2022-10-06T15:44:35.076Z,1.83
2022-10-06T15:47:03.859Z,1.80
2022-10-06T15:49:30.640Z,1.37
2022-10-06T15:51:58.911Z,2.20
2022-10-06T15:54:28.366Z,1.40
2022-10-06T15:56:58.077Z,1.50
2022-10-06T15:59:26.328Z,1.43
2022-10-06T16:01:54.439Z,1.87
2022-10-06T16:04:23.080Z,1.40
2022-10-06T16:06:49.850Z,1.20
2022-10-06T16:09:18.147Z,1.60
2022-10-06T16:11:45.724Z,1.27
2022-10-06T16:14:14.709Z,1.10
2022-10-06T16:16:43.832Z,1.43
2022-10-06T16:19:11.314Z,1.53
2022-10-06T16:21:38.773Z,1.40
2022-10-06T16:24:05.706Z,1.60
2022-10-06T16:26:33.517Z,1.47
2022-10-06T16:29:00.273Z,1.23
2022-10-06T16:31:28.479Z,1.10
2022-10-06T16:33:55.293Z,1.17
2022-10-06T16:36:22.536Z,1.57
2022-10-06T16:38:50.263Z,1.50
2022-10-06T16:41:17.213Z,1.23
2022-10-06T16:43:45.621Z,1.53
2022-10-06T16:46:14.239Z,1.30
2022-10-06T16:48:43.924Z,1.30
2022-10-06T16:51:12.405Z,1.50
2022-10-06T16:53:40.541Z,1.50
2022-10-06T16:56:09.418Z,1.73
2022-10-06T16:58:37.899Z,1.30
2022-10-06T17:01:05.454Z,3.10
2022-10-06T17:03:32.298Z,1.83
2022-10-06T17:06:05.417Z,1.40
2022-10-06T17:08:32.370Z,1.40
2022-10-06T17:11:01.262Z,1.40
2022-10-06T17:13:28.525Z,1.13
2022-10-06T17:16:03.336Z,1.53
2022-10-06T17:18:30.721Z,1.50
2022-10-06T17:20:59.198Z,1.20
2022-10-06T17:23:28.410Z,1.20
2022-10-06T17:26:07.894Z,1.80
2022-10-06T17:28:35.590Z,1.30
2022-10-06T17:31:02.678Z,1.30
2022-10-06T17:33:31.524Z,1.60
2022-10-06T17:36:02.998Z,1.33
2022-10-06T17:38:31.460Z,1.40
2022-10-06T17:40:58.143Z,1.33
2022-10-06T17:43:24.899Z,1.40
2022-10-06T17:45:51.653Z,1.50
2022-10-06T17:48:18.413Z,1.40
2022-10-06T17:50:56.800Z,1.67
2022-10-06T17:53:23.536Z,2.03
2022-10-06T17:55:51.601Z,1.70
2022-10-06T17:58:18.911Z,1.73
2022-10-06T18:00:45.715Z,1.50
2022-10-06T18:03:12.460Z,2.70
2022-10-06T18:05:39.149Z,2.33
2022-10-06T18:08:05.948Z,2.97
2022-10-06T18:10:32.720Z,1.93
2022-10-06T18:13:00.760Z,1.80
2022-10-06T18:15:27.471Z,2.43
2022-10-06T18:17:54.146Z,1.97
2022-10-06T18:20:20.897Z,2.30
2022-10-06T18:22:47.628Z,2.73
2022-10-06T18:25:14.461Z,2.00
2022-10-06T18:27:41.280Z,1.97
2022-10-06T18:30:10.792Z,2.40
2022-10-06T18:38:10.905Z,2.20
2022-10-06T18:40:37.622Z,2.03
2022-10-06T18:43:04.346Z,2.50
2022-10-06T18:45:38.410Z,3.07
2022-10-06T18:48:06.103Z,2.97
2022-10-06T18:50:32.836Z,3.60
2022-10-06T18:52:59.563Z,2.50
2022-10-06T18:55:26.474Z,2.90
2022-10-06T18:57:53.275Z,3.30
2022-10-06T19:00:20.013Z,2.77
2022-10-06T19:02:49.967Z,3.97
2022-10-06T19:05:16.721Z,3.47
2022-10-06T19:07:43.906Z,4.30
2022-10-06T19:10:11.072Z,2.90
2022-10-06T19:12:37.771Z,2.73
2022-10-06T19:15:05.272Z,2.83
2022-10-06T19:17:32.109Z,3.07
2022-10-06T19:20:00.151Z,2.80
2022-10-06T19:22:26.942Z,3.73
2022-10-06T19:24:53.815Z,3.77
2022-10-06T19:27:22.596Z,4.10
2022-10-06T19:29:51.130Z,4.60
2022-10-06T19:32:20.422Z,4.60
2022-10-06T19:34:47.426Z,3.17
2022-10-06T19:37:15.920Z,4.43
2022-10-06T19:39:45.166Z,4.03
2022-10-06T19:42:13.406Z,3.87
2022-10-06T19:44:42.912Z,3.10
2022-10-06T19:47:12.722Z,3.70
2022-10-06T19:49:39.444Z,3.47
2022-10-06T19:52:07.796Z,3.27
2022-10-06T19:54:36.462Z,3.33
2022-10-06T19:57:05.637Z,2.90
2022-10-06T19:59:32.835Z,2.53
2022-10-06T20:01:59.572Z,3.00
2022-10-06T20:04:26.476Z,3.57
2022-10-06T20:06:53.248Z,2.20
2022-10-06T20:09:22.232Z,3.30
2022-10-06T20:11:51.436Z,3.07
2022-10-06T20:14:21.310Z,2.60
2022-10-06T20:16:49.770Z,2.87
2022-10-06T20:19:17.222Z,2.60
2022-10-06T20:21:44.469Z,3.63
2022-10-06T20:24:13.262Z,3.40
2022-10-06T20:26:41.322Z,3.30
2022-10-06T20:29:10.902Z,2.80
2022-10-06T20:31:39.601Z,4.10
2022-10-06T20:34:08.485Z,2.80
2022-10-06T20:36:36.129Z,3.37
2022-10-06T20:39:03.030Z,5.00
2022-10-06T20:41:30.761Z,3.50
2022-10-06T20:43:58.116Z,3.53
2022-10-06T20:46:27.917Z,3.87
2022-10-06T20:48:54.664Z,3.37
2022-10-06T20:51:26.933Z,4.77
2022-10-06T20:53:54.399Z,4.07
2022-10-06T20:56:21.108Z,4.50
2022-10-06T20:58:47.837Z,4.50
2022-10-06T21:01:14.740Z,4.27
2022-10-06T21:03:47.753Z,4.10
2022-10-06T21:06:15.546Z,5.10
2022-10-06T21:08:43.480Z,5.23
2022-10-06T21:11:11.614Z,5.23
2022-10-06T21:13:38.731Z,4.60
2022-10-06T21:16:06.182Z,5.27
2022-10-06T21:18:33.573Z,4.43
2022-10-06T21:21:04.502Z,3.97
2022-10-06T21:23:36.104Z,4.90
2022-10-06T21:26:03.511Z,5.33
2022-10-06T21:28:30.432Z,5.13
2022-10-06T21:31:02.092Z,4.70
2022-10-06T21:33:30.378Z,4.53
2022-10-06T21:36:03.199Z,5.50
2022-10-06T21:38:30.736Z,4.03
2022-10-06T21:41:01.801Z,3.70
2022-10-06T21:43:28.734Z,4.57
2022-10-06T21:46:17.207Z,4.30
2022-10-06T21:48:42.367Z,3.60
2022-10-06T21:51:10.658Z,4.30
2022-10-06T21:53:37.470Z,3.90
2022-10-06T21:56:04.302Z,4.00
2022-10-06T21:58:31.123Z,4.40
2022-10-06T22:01:01.812Z,4.40
2022-10-06T22:03:28.665Z,3.77
2022-10-06T22:05:55.485Z,3.90
2022-10-06T22:08:23.611Z,3.30
2022-10-06T22:10:50.459Z,3.30
2022-10-06T22:13:17.267Z,3.80
2022-10-06T22:15:44.160Z,3.37
2022-10-06T22:18:11.050Z,3.90
2022-10-06T22:20:37.871Z,3.73
2022-10-06T22:23:05.101Z,3.60
2022-10-06T22:25:33.411Z,3.93
2022-10-06T22:28:00.456Z,3.10
2022-10-06T22:30:27.381Z,3.77
2022-10-06T22:32:54.199Z,4.63
2022-10-06T22:35:21.014Z,4.40
2022-10-06T22:37:49.172Z,3.37
2022-10-06T22:40:16.025Z,4.03
2022-10-06T22:42:44.195Z,3.57
2022-10-06T22:45:11.242Z,4.80
2022-10-06T22:47:38.076Z,5.30
2022-10-06T22:50:06.247Z,4.33
2022-10-06T22:52:33.145Z,3.90
2022-10-06T22:54:59.959Z,5.00
2022-10-06T22:57:26.770Z,4.03
2022-10-06T22:59:54.927Z,4.37
2022-10-06T23:02:21.771Z,3.70
2022-10-06T23:04:48.767Z,3.40
2022-10-06T23:07:15.607Z,4.83
2022-10-06T23:09:42.417Z,5.50
2022-10-06T23:12:09.244Z,5.60
2022-10-06T23:14:36.072Z,3.90
2022-10-06T23:17:04.301Z,4.13
2022-10-06T23:19:31.114Z,6.87
2022-10-06T23:21:57.944Z,4.83
2022-10-06T23:24:24.774Z,6.60
2022-10-06T23:26:51.607Z,6.33
2022-10-06T23:29:18.421Z,5.00
2022-10-06T23:31:45.492Z,5.67
2022-10-06T23:34:13.725Z,4.90
2022-10-06T23:36:40.540Z,4.53
2022-10-06T23:39:07.424Z,4.70
2022-10-06T23:41:34.260Z,5.33
2022-10-06T23:44:01.186Z,5.77
2022-10-06T23:46:28.017Z,4.40
2022-10-06T23:48:54.814Z,4.97
2022-10-06T23:51:23.019Z,4.93
2022-10-06T23:53:50.019Z,4.17
2022-10-06T23:56:17.044Z,4.73
2022-10-06T23:58:43.842Z,5.77
